sensor_id;sensor_type;location;lat;lon;timestamp;temperature;humidity
27619;DHT22;15039;50.830;4.730;2023-01-04T00:00:13;9.20;99.90
27619;DHT22;15039;50.830;4.730;2023-01-04T00:02:39;9.20;99.90
27619;DHT22;15039;50.830;4.730;2023-01-04T00:05:05;9.20;99.90
27619;DHT22;15039;50.830;4.730;2023-01-04T00:07:30;9.20;99.90
27619;DHT22;15039;50.830;4.730;2023-01-04T00:09:56;9.20;99.90
27619;DHT22;15039;50.830;4.730;2023-01-04T00:12:22;9.20;99.90
27619;DHT22;15039;50.830;4.730;2023-01-04T00:14:48;9.20;99.90
27619;DHT22;15039;50.830;4.730;2023-01-04T00:17:13;9.20;99.90
27619;DHT22;15039;50.830;4.730;2023-01-04T00:19:39;9.20;99.90
27619;DHT22;15039;50.830;4.730;2023-01-04T00:22:04;9.20;99.90
27619;DHT22;15039;50.830;4.730;2023-01-04T00:24:30;9.20;99.90
27619;DHT22;15039;50.830;4.730;2023-01-04T00:26:56;9.20;99.90
27619;DHT22;15039;50.830;4.730;2023-01-04T00:29:21;9.30;99.90
27619;DHT22;15039;50.830;4.730;2023-01-04T00:31:47;9.30;99.90
27619;DHT22;15039;50.830;4.730;2023-01-04T00:34:14;9.40;99.90
27619;DHT22;15039;50.830;4.730;2023-01-04T00:36:40;9.40;99.90
27619;DHT22;15039;50.830;4.730;2023-01-04T00:39:06;9.40;99.90
27619;DHT22;15039;50.830;4.730;2023-01-04T00:41:38;9.40;99.90
27619;DHT22;15039;50.830;4.730;2023-01-04T00:44:06;9.40;99.90
27619;DHT22;15039;50.830;4.730;2023-01-04T00:46:32;9.40;99.90
27619;DHT22;15039;50.830;4.730;2023-01-04T00:48:58;9.50;99.90
27619;DHT22;15039;50.830;4.730;2023-01-04T00:51:24;9.50;99.90
27619;DHT22;15039;50.830;4.730;2023-01-04T00:53:50;9.50;99.90
27619;DHT22;15039;50.830;4.730;2023-01-04T00:56:17;9.50;99.90
27619;DHT22;15039;50.830;4.730;2023-01-04T00:58:42;9.50;99.90
27619;DHT22;15039;50.830;4.730;2023-01-04T01:01:08;9.50;99.90
27619;DHT22;15039;50.830;4.730;2023-01-04T01:03:34;9.50;99.90
27619;DHT22;15039;50.830;4.730;2023-01-04T01:06:01;9.50;99.90
27619;DHT22;15039;50.830;4.730;2023-01-04T01:08:26;9.50;99.90
27619;DHT22;15039;50.830;4.730;2023-01-04T01:10:54;9.50;99.90
27619;DHT22;15039;50.830;4.730;2023-01-04T01:13:21;9.50;99.90
27619;DHT22;15039;50.830;4.730;2023-01-04T01:15:47;9.50;99.90
27619;DHT22;15039;50.830;4.730;2023-01-04T01:18:13;9.50;99.90
27619;DHT22;15039;50.830;4.730;2023-01-04T01:20:43;9.50;99.90
27619;DHT22;15039;50.830;4.730;2023-01-04T01:23:10;9.50;99.90
27619;DHT22;15039;50.830;4.730;2023-01-04T01:25:36;9.50;99.90
27619;DHT22;15039;50.830;4.730;2023-01-04T01:28:02;9.50;99.90
27619;DHT22;15039;50.830;4.730;2023-01-04T01:30:28;9.50;99.90
27619;DHT22;15039;50.830;4.730;2023-01-04T01:32:53;9.50;99.90
27619;DHT22;15039;50.830;4.730;2023-01-04T01:35:19;9.50;99.90
27619;DHT22;15039;50.830;4.730;2023-01-04T01:37:44;9.50;99.90
27619;DHT22;15039;50.830;4.730;2023-01-04T01:40:10;9.50;99.90
27619;DHT22;15039;50.830;4.730;2023-01-04T01:42:36;9.60;99.90
27619;DHT22;15039;50.830;4.730;2023-01-04T01:45:21;9.60;99.90
27619;DHT22;15039;50.830;4.730;2023-01-04T01:47:48;9.60;99.90
27619;DHT22;15039;50.830;4.730;2023-01-04T01:50:34;9.60;99.90
27619;DHT22;15039;50.830;4.730;2023-01-04T01:53:02;9.60;99.90
27619;DHT22;15039;50.830;4.730;2023-01-04T01:55:30;9.60;99.90
27619;DHT22;15039;50.830;4.730;2023-01-04T01:57:59;9.60;99.90
27619;DHT22;15039;50.830;4.730;2023-01-04T02:00:25;9.60;99.90
27619;DHT22;15039;50.830;4.730;2023-01-04T02:03:02;9.60;99.90
27619;DHT22;15039;50.830;4.730;2023-01-04T02:05:31;9.70;99.90
27619;DHT22;15039;50.830;4.730;2023-01-04T02:07:59;9.70;99.90
27619;DHT22;15039;50.830;4.730;2023-01-04T02:10:26;9.70;99.90
27619;DHT22;15039;50.830;4.730;2023-01-04T02:12:52;9.70;99.90
27619;DHT22;15039;50.830;4.730;2023-01-04T02:15:18;9.70;99.90
27619;DHT22;15039;50.830;4.730;2023-01-04T02:17:55;9.70;99.90
27619;DHT22;15039;50.830;4.730;2023-01-04T02:20:30;9.70;99.90
27619;DHT22;15039;50.830;4.730;2023-01-04T02:26:29;9.70;99.90
27619;DHT22;15039;50.830;4.730;2023-01-04T02:29:22;9.70;99.90
27619;DHT22;15039;50.830;4.730;2023-01-04T02:31:59;9.70;99.90
27619;DHT22;15039;50.830;4.730;2023-01-04T02:34:44;9.80;99.90
27619;DHT22;15039;50.830;4.730;2023-01-04T02:42:39;9.80;99.90
27619;DHT22;15039;50.830;4.730;2023-01-04T02:45:40;9.80;99.90
27619;DHT22;15039;50.830;4.730;2023-01-04T02:48:07;9.90;99.90
27619;DHT22;15039;50.830;4.730;2023-01-04T02:50:57;9.90;99.90
27619;DHT22;15039;50.830;4.730;2023-01-04T02:53:38;9.90;99.90
27619;DHT22;15039;50.830;4.730;2023-01-04T02:59:13;10.00;99.90
27619;DHT22;15039;50.830;4.730;2023-01-04T03:02:08;10.00;99.90
27619;DHT22;15039;50.830;4.730;2023-01-04T03:05:14;10.10;99.90
27619;DHT22;15039;50.830;4.730;2023-01-04T03:08:29;10.00;99.90
27619;DHT22;15039;50.830;4.730;2023-01-04T03:11:11;10.10;99.90
27619;DHT22;15039;50.830;4.730;2023-01-04T03:13:59;10.10;99.90
27619;DHT22;15039;50.830;4.730;2023-01-04T03:16:27;10.10;99.90
27619;DHT22;15039;50.830;4.730;2023-01-04T03:18:55;10.20;99.90
27619;DHT22;15039;50.830;4.730;2023-01-04T03:21:24;10.20;99.90
27619;DHT22;15039;50.830;4.730;2023-01-04T03:23:55;10.20;99.90
27619;DHT22;15039;50.830;4.730;2023-01-04T03:26:46;10.20;99.90
27619;DHT22;15039;50.830;4.730;2023-01-04T03:30:12;10.30;99.90
27619;DHT22;15039;50.830;4.730;2023-01-04T03:33:00;10.30;99.90
27619;DHT22;15039;50.830;4.730;2023-01-04T03:38:43;10.40;99.90
27619;DHT22;15039;50.830;4.730;2023-01-04T03:41:41;10.40;99.90
27619;DHT22;15039;50.830;4.730;2023-01-04T03:44:46;10.40;99.90
27619;DHT22;15039;50.830;4.730;2023-01-04T03:47:39;10.40;99.90
27619;DHT22;15039;50.830;4.730;2023-01-04T03:50:31;10.40;99.90
27619;DHT22;15039;50.830;4.730;2023-01-04T03:52:58;10.40;99.90
27619;DHT22;15039;50.830;4.730;2023-01-04T03:55:26;10.50;99.90
27619;DHT22;15039;50.830;4.730;2023-01-04T03:57:54;10.50;99.90
27619;DHT22;15039;50.830;4.730;2023-01-04T04:00:19;10.50;99.90
27619;DHT22;15039;50.830;4.730;2023-01-04T04:02:46;10.50;99.90
27619;DHT22;15039;50.830;4.730;2023-01-04T04:05:18;10.60;99.90
27619;DHT22;15039;50.830;4.730;2023-01-04T04:08:03;10.60;99.90
27619;DHT22;15039;50.830;4.730;2023-01-04T04:10:47;10.60;99.90
27619;DHT22;15039;50.830;4.730;2023-01-04T04:13:13;10.60;99.90
27619;DHT22;15039;50.830;4.730;2023-01-04T04:15:39;10.60;99.90
27619;DHT22;15039;50.830;4.730;2023-01-04T04:18:05;10.70;99.90
27619;DHT22;15039;50.830;4.730;2023-01-04T04:20:30;10.70;99.90
27619;DHT22;15039;50.830;4.730;2023-01-04T04:22:56;10.70;99.90
27619;DHT22;15039;50.830;4.730;2023-01-04T04:25:21;10.70;99.90
27619;DHT22;15039;50.830;4.730;2023-01-04T04:27:47;10.80;99.90
27619;DHT22;15039;50.830;4.730;2023-01-04T04:30:13;10.80;99.90
27619;DHT22;15039;50.830;4.730;2023-01-04T04:32:38;10.80;99.90
27619;DHT22;15039;50.830;4.730;2023-01-04T04:35:04;10.80;99.90
27619;DHT22;15039;50.830;4.730;2023-01-04T04:37:30;10.90;99.90
27619;DHT22;15039;50.830;4.730;2023-01-04T04:39:57;10.90;99.90
27619;DHT22;15039;50.830;4.730;2023-01-04T04:42:23;11.00;99.90
27619;DHT22;15039;50.830;4.730;2023-01-04T04:44:48;11.00;99.90
27619;DHT22;15039;50.830;4.730;2023-01-04T04:47:14;11.00;99.90
27619;DHT22;15039;50.830;4.730;2023-01-04T04:49:40;11.00;99.90
27619;DHT22;15039;50.830;4.730;2023-01-04T04:52:06;11.00;99.90
27619;DHT22;15039;50.830;4.730;2023-01-04T04:54:32;11.10;99.90
27619;DHT22;15039;50.830;4.730;2023-01-04T04:56:57;11.10;99.90
27619;DHT22;15039;50.830;4.730;2023-01-04T04:59:23;11.10;99.90
27619;DHT22;15039;50.830;4.730;2023-01-04T05:01:49;11.10;99.90
27619;DHT22;15039;50.830;4.730;2023-01-04T05:04:14;11.10;99.90
27619;DHT22;15039;50.830;4.730;2023-01-04T05:06:45;11.10;99.90
27619;DHT22;15039;50.830;4.730;2023-01-04T05:09:12;11.20;99.90
27619;DHT22;15039;50.830;4.730;2023-01-04T05:11:38;11.20;99.90
27619;DHT22;15039;50.830;4.730;2023-01-04T05:14:42;11.20;99.90
27619;DHT22;15039;50.830;4.730;2023-01-04T05:17:08;11.20;99.90
27619;DHT22;15039;50.830;4.730;2023-01-04T05:19:33;11.20;99.90
27619;DHT22;15039;50.830;4.730;2023-01-04T05:21:59;11.20;99.90
27619;DHT22;15039;50.830;4.730;2023-01-04T05:24:25;11.20;99.90
27619;DHT22;15039;50.830;4.730;2023-01-04T05:26:50;11.30;99.90
27619;DHT22;15039;50.830;4.730;2023-01-04T05:29:16;11.40;99.90
27619;DHT22;15039;50.830;4.730;2023-01-04T05:32:00;11.30;99.90
27619;DHT22;15039;50.830;4.730;2023-01-04T05:34:26;11.40;99.90
27619;DHT22;15039;50.830;4.730;2023-01-04T05:36:51;11.40;99.90
27619;DHT22;15039;50.830;4.730;2023-01-04T05:39:17;11.40;99.90
27619;DHT22;15039;50.830;4.730;2023-01-04T05:41:42;11.40;99.90
27619;DHT22;15039;50.830;4.730;2023-01-04T05:44:40;11.40;99.90
27619;DHT22;15039;50.830;4.730;2023-01-04T05:47:05;11.30;99.90
27619;DHT22;15039;50.830;4.730;2023-01-04T05:49:31;11.30;99.90
27619;DHT22;15039;50.830;4.730;2023-01-04T05:51:57;11.30;99.90
27619;DHT22;15039;50.830;4.730;2023-01-04T05:54:22;11.30;99.90
27619;DHT22;15039;50.830;4.730;2023-01-04T05:56:48;11.30;99.90
27619;DHT22;15039;50.830;4.730;2023-01-04T05:59:13;11.30;99.90
27619;DHT22;15039;50.830;4.730;2023-01-04T06:01:40;11.40;99.90
27619;DHT22;15039;50.830;4.730;2023-01-04T06:04:05;11.40;99.90
27619;DHT22;15039;50.830;4.730;2023-01-04T06:06:31;11.40;99.90
27619;DHT22;15039;50.830;4.730;2023-01-04T06:08:57;11.50;99.90
27619;DHT22;15039;50.830;4.730;2023-01-04T06:11:22;11.60;99.90
27619;DHT22;15039;50.830;4.730;2023-01-04T06:13:48;11.60;99.90
27619;DHT22;15039;50.830;4.730;2023-01-04T06:16:13;11.60;99.90
27619;DHT22;15039;50.830;4.730;2023-01-04T06:18:39;11.60;99.90
27619;DHT22;15039;50.830;4.730;2023-01-04T06:21:04;11.60;99.90
27619;DHT22;15039;50.830;4.730;2023-01-04T06:23:30;11.60;99.90
27619;DHT22;15039;50.830;4.730;2023-01-04T06:25:56;11.60;99.90
27619;DHT22;15039;50.830;4.730;2023-01-04T06:28:21;11.60;99.90
27619;DHT22;15039;50.830;4.730;2023-01-04T06:30:47;11.60;99.90
27619;DHT22;15039;50.830;4.730;2023-01-04T06:33:12;11.60;99.90
27619;DHT22;15039;50.830;4.730;2023-01-04T06:35:38;11.60;99.90
27619;DHT22;15039;50.830;4.730;2023-01-04T06:38:03;11.50;99.90
27619;DHT22;15039;50.830;4.730;2023-01-04T06:40:29;11.50;99.90
27619;DHT22;15039;50.830;4.730;2023-01-04T06:42:55;11.50;99.90
27619;DHT22;15039;50.830;4.730;2023-01-04T06:45:20;11.50;99.90
27619;DHT22;15039;50.830;4.730;2023-01-04T06:47:46;11.60;99.90
27619;DHT22;15039;50.830;4.730;2023-01-04T06:50:12;11.60;99.90
27619;DHT22;15039;50.830;4.730;2023-01-04T06:52:38;11.50;99.90
27619;DHT22;15039;50.830;4.730;2023-01-04T06:55:05;11.50;99.90
27619;DHT22;15039;50.830;4.730;2023-01-04T06:57:31;11.50;99.90
27619;DHT22;15039;50.830;4.730;2023-01-04T06:59:56;11.50;99.90
27619;DHT22;15039;50.830;4.730;2023-01-04T07:02:22;11.50;99.90
27619;DHT22;15039;50.830;4.730;2023-01-04T07:04:48;11.50;99.90
27619;DHT22;15039;50.830;4.730;2023-01-04T07:07:13;11.50;99.90
27619;DHT22;15039;50.830;4.730;2023-01-04T07:09:39;11.40;99.90
27619;DHT22;15039;50.830;4.730;2023-01-04T07:12:05;11.50;99.90
27619;DHT22;15039;50.830;4.730;2023-01-04T07:14:31;11.50;99.90
27619;DHT22;15039;50.830;4.730;2023-01-04T07:16:56;11.50;99.90
27619;DHT22;15039;50.830;4.730;2023-01-04T07:19:22;11.60;99.90
27619;DHT22;15039;50.830;4.730;2023-01-04T07:21:48;11.70;99.90
27619;DHT22;15039;50.830;4.730;2023-01-04T07:24:14;11.70;99.90
27619;DHT22;15039;50.830;4.730;2023-01-04T07:26:40;11.70;99.90
27619;DHT22;15039;50.830;4.730;2023-01-04T07:29:06;11.70;99.90
27619;DHT22;15039;50.830;4.730;2023-01-04T07:31:49;11.80;99.90
27619;DHT22;15039;50.830;4.730;2023-01-04T07:34:17;11.80;99.90
27619;DHT22;15039;50.830;4.730;2023-01-04T07:36:42;11.90;99.90
27619;DHT22;15039;50.830;4.730;2023-01-04T07:39:09;11.90;99.90
27619;DHT22;15039;50.830;4.730;2023-01-04T07:41:37;11.90;99.90
27619;DHT22;15039;50.830;4.730;2023-01-04T07:44:03;12.00;99.90
27619;DHT22;15039;50.830;4.730;2023-01-04T07:46:30;12.00;99.90
27619;DHT22;15039;50.830;4.730;2023-01-04T07:48:56;12.00;99.90
27619;DHT22;15039;50.830;4.730;2023-01-04T07:51:22;12.00;99.90
27619;DHT22;15039;50.830;4.730;2023-01-04T07:53:47;12.00;99.90
27619;DHT22;15039;50.830;4.730;2023-01-04T07:56:13;12.00;99.90
27619;DHT22;15039;50.830;4.730;2023-01-04T07:58:38;12.00;99.90
27619;DHT22;15039;50.830;4.730;2023-01-04T08:01:12;12.00;99.90
27619;DHT22;15039;50.830;4.730;2023-01-04T08:03:39;12.00;99.90
27619;DHT22;15039;50.830;4.730;2023-01-04T08:06:10;12.00;99.90
27619;DHT22;15039;50.830;4.730;2023-01-04T08:08:36;12.00;99.90
27619;DHT22;15039;50.830;4.730;2023-01-04T08:11:03;12.00;99.90
27619;DHT22;15039;50.830;4.730;2023-01-04T08:13:29;12.00;99.90
27619;DHT22;15039;50.830;4.730;2023-01-04T08:15:55;12.00;99.90
27619;DHT22;15039;50.830;4.730;2023-01-04T08:18:21;12.00;99.90
27619;DHT22;15039;50.830;4.730;2023-01-04T08:20:47;12.00;99.90
27619;DHT22;15039;50.830;4.730;2023-01-04T08:23:12;12.10;99.90
27619;DHT22;15039;50.830;4.730;2023-01-04T08:25:38;12.00;99.90
27619;DHT22;15039;50.830;4.730;2023-01-04T08:28:04;12.00;99.90
27619;DHT22;15039;50.830;4.730;2023-01-04T08:30:30;12.00;99.90
27619;DHT22;15039;50.830;4.730;2023-01-04T08:32:55;12.00;99.90
27619;DHT22;15039;50.830;4.730;2023-01-04T08:35:22;11.90;99.90
27619;DHT22;15039;50.830;4.730;2023-01-04T08:37:47;11.90;99.90
27619;DHT22;15039;50.830;4.730;2023-01-04T08:40:13;11.90;99.90
27619;DHT22;15039;50.830;4.730;2023-01-04T08:42:39;12.00;99.90
27619;DHT22;15039;50.830;4.730;2023-01-04T08:45:05;11.90;99.90
27619;DHT22;15039;50.830;4.730;2023-01-04T08:47:31;12.00;99.90
27619;DHT22;15039;50.830;4.730;2023-01-04T08:49:57;12.10;99.90
27619;DHT22;15039;50.830;4.730;2023-01-04T08:52:24;12.10;99.90
27619;DHT22;15039;50.830;4.730;2023-01-04T08:54:49;12.10;99.90
27619;DHT22;15039;50.830;4.730;2023-01-04T08:57:16;12.10;99.90
27619;DHT22;15039;50.830;4.730;2023-01-04T08:59:41;12.10;99.90
27619;DHT22;15039;50.830;4.730;2023-01-04T09:02:24;12.10;99.90
27619;DHT22;15039;50.830;4.730;2023-01-04T09:04:51;12.10;99.90
27619;DHT22;15039;50.830;4.730;2023-01-04T09:07:16;12.10;99.90
27619;DHT22;15039;50.830;4.730;2023-01-04T09:09:42;12.20;99.90
27619;DHT22;15039;50.830;4.730;2023-01-04T09:12:08;12.30;99.90
27619;DHT22;15039;50.830;4.730;2023-01-04T09:14:34;12.30;99.90
27619;DHT22;15039;50.830;4.730;2023-01-04T09:17:00;12.30;99.90
27619;DHT22;15039;50.830;4.730;2023-01-04T09:19:26;12.30;99.90
27619;DHT22;15039;50.830;4.730;2023-01-04T09:21:51;12.30;99.90
27619;DHT22;15039;50.830;4.730;2023-01-04T09:24:17;12.40;99.90
27619;DHT22;15039;50.830;4.730;2023-01-04T09:26:42;12.40;99.90
27619;DHT22;15039;50.830;4.730;2023-01-04T09:29:09;12.40;99.90
27619;DHT22;15039;50.830;4.730;2023-01-04T09:31:35;12.50;99.90
27619;DHT22;15039;50.830;4.730;2023-01-04T09:34:01;12.50;99.90
27619;DHT22;15039;50.830;4.730;2023-01-04T09:36:27;12.50;99.90
27619;DHT22;15039;50.830;4.730;2023-01-04T09:38:53;12.60;99.90
27619;DHT22;15039;50.830;4.730;2023-01-04T09:41:42;12.70;99.90
27619;DHT22;15039;50.830;4.730;2023-01-04T09:46:53;12.60;99.90
27619;DHT22;15039;50.830;4.730;2023-01-04T09:49:42;12.60;99.90
27619;DHT22;15039;50.830;4.730;2023-01-04T09:54:52;12.60;99.90
27619;DHT22;15039;50.830;4.730;2023-01-04T09:57:24;12.60;99.90
27619;DHT22;15039;50.830;4.730;2023-01-04T09:59:55;12.60;99.90
27619;DHT22;15039;50.830;4.730;2023-01-04T10:02:39;12.50;99.90
27619;DHT22;15039;50.830;4.730;2023-01-04T10:05:09;12.50;99.90
27619;DHT22;15039;50.830;4.730;2023-01-04T10:07:39;12.40;99.90
27619;DHT22;15039;50.830;4.730;2023-01-04T10:10:09;12.30;99.90
27619;DHT22;15039;50.830;4.730;2023-01-04T10:12:51;12.30;99.90
27619;DHT22;15039;50.830;4.730;2023-01-04T10:23:36;12.40;99.90
27619;DHT22;15039;50.830;4.730;2023-01-04T10:34:29;12.30;99.90
27619;DHT22;15039;50.830;4.730;2023-01-04T10:37:05;12.30;99.90
27619;DHT22;15039;50.830;4.730;2023-01-04T10:39:36;12.20;99.90
27619;DHT22;15039;50.830;4.730;2023-01-04T10:42:16;12.20;99.90
27619;DHT22;15039;50.830;4.730;2023-01-04T10:47:25;12.20;99.90
27619;DHT22;15039;50.830;4.730;2023-01-04T10:49:59;12.20;99.90
27619;DHT22;15039;50.830;4.730;2023-01-04T10:52:35;12.20;99.90
27619;DHT22;15039;50.830;4.730;2023-01-04T10:55:16;12.20;99.90
27619;DHT22;15039;50.830;4.730;2023-01-04T11:00:44;12.20;99.90
27619;DHT22;15039;50.830;4.730;2023-01-04T11:05:57;12.20;99.90
27619;DHT22;15039;50.830;4.730;2023-01-04T11:08:41;12.20;99.90
27619;DHT22;15039;50.830;4.730;2023-01-04T11:11:11;12.30;99.90
27619;DHT22;15039;50.830;4.730;2023-01-04T11:13:39;12.30;99.90
27619;DHT22;15039;50.830;4.730;2023-01-04T11:16:05;12.20;99.90
27619;DHT22;15039;50.830;4.730;2023-01-04T11:18:32;12.30;99.90
27619;DHT22;15039;50.830;4.730;2023-01-04T11:21:03;12.20;99.90
27619;DHT22;15039;50.830;4.730;2023-01-04T11:23:30;12.30;99.90
27619;DHT22;15039;50.830;4.730;2023-01-04T11:25:58;12.30;99.90
27619;DHT22;15039;50.830;4.730;2023-01-04T11:28:45;12.30;99.90
27619;DHT22;15039;50.830;4.730;2023-01-04T11:33:58;12.40;99.90
27619;DHT22;15039;50.830;4.730;2023-01-04T11:38:56;12.30;99.90
27619;DHT22;15039;50.830;4.730;2023-01-04T11:41:22;12.30;99.90
27619;DHT22;15039;50.830;4.730;2023-01-04T11:44:02;12.30;99.90
27619;DHT22;15039;50.830;4.730;2023-01-04T11:46:29;12.30;99.90
27619;DHT22;15039;50.830;4.730;2023-01-04T11:48:55;12.40;99.90
27619;DHT22;15039;50.830;4.730;2023-01-04T11:56:32;12.40;99.90
27619;DHT22;15039;50.830;4.730;2023-01-04T11:59:14;12.40;99.90
27619;DHT22;15039;50.830;4.730;2023-01-04T12:01:48;12.40;99.90
27619;DHT22;15039;50.830;4.730;2023-01-04T12:06:52;12.40;99.90
27619;DHT22;15039;50.830;4.730;2023-01-04T12:09:20;12.40;99.90
27619;DHT22;15039;50.830;4.730;2023-01-04T12:11:52;12.40;99.90
27619;DHT22;15039;50.830;4.730;2023-01-04T12:14:24;12.40;99.90
27619;DHT22;15039;50.830;4.730;2023-01-04T12:19:27;12.40;99.90
27619;DHT22;15039;50.830;4.730;2023-01-04T12:21:56;12.50;99.90
27619;DHT22;15039;50.830;4.730;2023-01-04T12:24:30;12.50;99.90
27619;DHT22;15039;50.830;4.730;2023-01-04T12:26:57;12.50;99.90
27619;DHT22;15039;50.830;4.730;2023-01-04T12:55:23;12.80;99.90
27619;DHT22;15039;50.830;4.730;2023-01-04T12:57:47;12.70;99.90
27619;DHT22;15039;50.830;4.730;2023-01-04T13:00:14;12.70;99.90
27619;DHT22;15039;50.830;4.730;2023-01-04T13:02:44;12.70;99.90
27619;DHT22;15039;50.830;4.730;2023-01-04T13:07:54;12.80;99.90
27619;DHT22;15039;50.830;4.730;2023-01-04T13:10:36;12.80;99.90
27619;DHT22;15039;50.830;4.730;2023-01-04T13:18:41;12.80;99.90
27619;DHT22;15039;50.830;4.730;2023-01-04T13:21:12;12.80;99.90
27619;DHT22;15039;50.830;4.730;2023-01-04T13:23:44;12.80;99.90
27619;DHT22;15039;50.830;4.730;2023-01-04T13:26:40;12.80;99.90
27619;DHT22;15039;50.830;4.730;2023-01-04T13:29:24;12.80;99.90
27619;DHT22;15039;50.830;4.730;2023-01-04T13:34:22;12.80;99.90
27619;DHT22;15039;50.830;4.730;2023-01-04T13:37:10;12.80;99.90
27619;DHT22;15039;50.830;4.730;2023-01-04T13:39:46;12.90;99.90
27619;DHT22;15039;50.830;4.730;2023-01-04T13:42:35;13.00;99.90
27619;DHT22;15039;50.830;4.730;2023-01-04T13:47:34;13.10;99.90
27619;DHT22;15039;50.830;4.730;2023-01-04T13:50:01;13.10;99.90
27619;DHT22;15039;50.830;4.730;2023-01-04T13:52:27;13.20;99.90
27619;DHT22;15039;50.830;4.730;2023-01-04T13:55:29;13.20;99.90
27619;DHT22;15039;50.830;4.730;2023-01-04T13:57:57;13.20;99.90
27619;DHT22;15039;50.830;4.730;2023-01-04T14:00:28;13.30;99.90
27619;DHT22;15039;50.830;4.730;2023-01-04T14:06:58;13.30;99.90
27619;DHT22;15039;50.830;4.730;2023-01-04T14:11:42;13.30;99.90
27619;DHT22;15039;50.830;4.730;2023-01-04T14:19:59;13.20;99.90
27619;DHT22;15039;50.830;4.730;2023-01-04T14:22:33;13.10;99.90
27619;DHT22;15039;50.830;4.730;2023-01-04T14:27:45;13.20;99.90
27619;DHT22;15039;50.830;4.730;2023-01-04T14:32:39;13.10;99.90
27619;DHT22;15039;50.830;4.730;2023-01-04T14:35:10;13.10;99.90
27619;DHT22;15039;50.830;4.730;2023-01-04T14:37:37;13.20;99.90
27619;DHT22;15039;50.830;4.730;2023-01-04T14:40:13;13.20;99.90
27619;DHT22;15039;50.830;4.730;2023-01-04T14:42:39;13.20;99.90
27619;DHT22;15039;50.830;4.730;2023-01-04T14:45:11;13.20;99.90
27619;DHT22;15039;50.830;4.730;2023-01-04T14:47:37;13.20;99.90
27619;DHT22;15039;50.830;4.730;2023-01-04T14:50:03;13.20;99.90
27619;DHT22;15039;50.830;4.730;2023-01-04T14:52:29;13.20;99.90
27619;DHT22;15039;50.830;4.730;2023-01-04T14:54:55;13.20;99.90
27619;DHT22;15039;50.830;4.730;2023-01-04T14:57:21;13.20;99.90
27619;DHT22;15039;50.830;4.730;2023-01-04T14:59:46;13.20;99.90
27619;DHT22;15039;50.830;4.730;2023-01-04T15:02:12;13.20;99.90
27619;DHT22;15039;50.830;4.730;2023-01-04T15:04:38;13.20;99.90
27619;DHT22;15039;50.830;4.730;2023-01-04T15:07:04;13.10;99.90
27619;DHT22;15039;50.830;4.730;2023-01-04T15:09:29;13.10;99.90
27619;DHT22;15039;50.830;4.730;2023-01-04T15:11:55;13.20;99.90
27619;DHT22;15039;50.830;4.730;2023-01-04T15:14:21;13.10;99.90
27619;DHT22;15039;50.830;4.730;2023-01-04T15:16:47;13.10;99.90
27619;DHT22;15039;50.830;4.730;2023-01-04T15:19:13;13.10;99.90
27619;DHT22;15039;50.830;4.730;2023-01-04T15:21:38;13.10;99.90
27619;DHT22;15039;50.830;4.730;2023-01-04T15:24:05;13.10;99.90
27619;DHT22;15039;50.830;4.730;2023-01-04T15:26:31;13.10;99.90
27619;DHT22;15039;50.830;4.730;2023-01-04T15:28:56;13.10;99.90
27619;DHT22;15039;50.830;4.730;2023-01-04T15:31:22;13.00;99.90
27619;DHT22;15039;50.830;4.730;2023-01-04T15:33:48;13.00;99.90
27619;DHT22;15039;50.830;4.730;2023-01-04T15:36:15;13.00;99.90
27619;DHT22;15039;50.830;4.730;2023-01-04T15:38:43;13.00;99.90
27619;DHT22;15039;50.830;4.730;2023-01-04T15:41:12;13.00;99.90
27619;DHT22;15039;50.830;4.730;2023-01-04T15:43:58;13.10;99.90
27619;DHT22;15039;50.830;4.730;2023-01-04T15:46:23;13.10;99.90
27619;DHT22;15039;50.830;4.730;2023-01-04T15:48:49;13.20;99.90
27619;DHT22;15039;50.830;4.730;2023-01-04T15:51:14;13.20;99.90
27619;DHT22;15039;50.830;4.730;2023-01-04T15:53:40;13.10;99.90
27619;DHT22;15039;50.830;4.730;2023-01-04T15:56:08;13.20;99.90
27619;DHT22;15039;50.830;4.730;2023-01-04T15:58:33;13.20;99.90
27619;DHT22;15039;50.830;4.730;2023-01-04T16:00:59;13.20;99.90
27619;DHT22;15039;50.830;4.730;2023-01-04T16:03:33;13.20;99.90
27619;DHT22;15039;50.830;4.730;2023-01-04T16:06:03;13.10;99.90
27619;DHT22;15039;50.830;4.730;2023-01-04T16:08:30;13.10;99.90
27619;DHT22;15039;50.830;4.730;2023-01-04T16:10:55;13.10;99.90
27619;DHT22;15039;50.830;4.730;2023-01-04T16:13:21;13.20;99.90
27619;DHT22;15039;50.830;4.730;2023-01-04T16:15:48;13.10;99.90
27619;DHT22;15039;50.830;4.730;2023-01-04T16:18:14;13.10;99.90
27619;DHT22;15039;50.830;4.730;2023-01-04T16:20:40;13.00;99.90
27619;DHT22;15039;50.830;4.730;2023-01-04T16:23:06;13.00;99.90
27619;DHT22;15039;50.830;4.730;2023-01-04T16:25:31;13.10;99.90
27619;DHT22;15039;50.830;4.730;2023-01-04T16:27:57;13.00;99.90
27619;DHT22;15039;50.830;4.730;2023-01-04T16:30:22;13.10;99.90
27619;DHT22;15039;50.830;4.730;2023-01-04T16:32:48;13.00;99.90
27619;DHT22;15039;50.830;4.730;2023-01-04T16:35:14;13.00;99.90
27619;DHT22;15039;50.830;4.730;2023-01-04T16:37:40;13.00;99.90
27619;DHT22;15039;50.830;4.730;2023-01-04T16:40:07;13.00;99.90
27619;DHT22;15039;50.830;4.730;2023-01-04T16:42:35;12.90;99.90
27619;DHT22;15039;50.830;4.730;2023-01-04T16:45:01;12.90;99.90
27619;DHT22;15039;50.830;4.730;2023-01-04T16:47:27;12.90;99.90
27619;DHT22;15039;50.830;4.730;2023-01-04T16:49:53;13.00;99.90
27619;DHT22;15039;50.830;4.730;2023-01-04T16:52:18;13.00;99.90
27619;DHT22;15039;50.830;4.730;2023-01-04T16:54:44;12.90;99.90
27619;DHT22;15039;50.830;4.730;2023-01-04T16:57:10;13.00;99.90
27619;DHT22;15039;50.830;4.730;2023-01-04T16:59:35;12.90;99.90
27619;DHT22;15039;50.830;4.730;2023-01-04T17:02:01;12.90;99.90
27619;DHT22;15039;50.830;4.730;2023-01-04T17:04:26;12.90;99.90
27619;DHT22;15039;50.830;4.730;2023-01-04T17:06:52;12.90;99.90
27619;DHT22;15039;50.830;4.730;2023-01-04T17:09:20;12.90;99.90
27619;DHT22;15039;50.830;4.730;2023-01-04T17:11:46;12.90;99.90
27619;DHT22;15039;50.830;4.730;2023-01-04T17:14:28;12.90;99.90
27619;DHT22;15039;50.830;4.730;2023-01-04T17:16:54;12.90;99.90
27619;DHT22;15039;50.830;4.730;2023-01-04T17:19:20;12.80;99.90
27619;DHT22;15039;50.830;4.730;2023-01-04T17:21:46;12.70;99.90
27619;DHT22;15039;50.830;4.730;2023-01-04T17:24:13;12.60;99.90
27619;DHT22;15039;50.830;4.730;2023-01-04T17:26:39;12.50;99.90
27619;DHT22;15039;50.830;4.730;2023-01-04T17:29:04;12.50;99.90
27619;DHT22;15039;50.830;4.730;2023-01-04T17:31:33;12.60;99.90
27619;DHT22;15039;50.830;4.730;2023-01-04T17:33:59;12.60;99.90
27619;DHT22;15039;50.830;4.730;2023-01-04T17:36:25;12.60;99.90
27619;DHT22;15039;50.830;4.730;2023-01-04T17:38:50;12.60;99.90
27619;DHT22;15039;50.830;4.730;2023-01-04T17:41:20;12.60;99.90
27619;DHT22;15039;50.830;4.730;2023-01-04T17:43:48;12.70;99.90